BAW872 EGLL-EPKK
Flight info
| Callsign | BAW872 |
|---|---|
| Flight time | 2h 3m |
| Altitude | 39000 |
| Route | BPK Q295 MATCH DCT REDFA DCT TACHA DCT NIGUG DCT PODER DCT NOMKA DCT OMELO DCT OMIFU DCT SOPAV DCT PADKA |
| Aircraft | A20N/M-SDE2E3FGHIRWXY/LB1 |
Departure
| Time | 2026-05-05 09:13 |
|---|---|
| Airport | London Heathrow Airport (EGLL) |
Arrival
| Time | 2026-05-05 11:16 |
|---|---|
| Airport | Kraków John Paul II International Airport (EPKK) |
| Time | Latitude | Longitude | Altitude | Speed | Heading |
|---|---|---|---|---|---|
| 2026-05-05 08:33 | 51.46900 | -0.45937 | 91 ft | 0 kts | 57° |
| 2026-05-05 09:02 | 51.46899 | -0.45938 | 91 ft | 1 kts | 57° |
| 2026-05-05 09:02 | 51.46891 | -0.45957 | 91 ft | 2 kts | 57° |
| 2026-05-05 09:02 | 51.46883 | -0.45977 | 91 ft | 2 kts | 57° |
| 2026-05-05 09:02 | 51.46874 | -0.45998 | 91 ft | 2 kts | 56° |
| 2026-05-05 09:03 | 51.46871 | -0.46020 | 91 ft | 2 kts | 101° |
| 2026-05-05 09:03 | 51.46877 | -0.46042 | 91 ft | 1 kts | 137° |
| 2026-05-05 09:03 | 51.46882 | -0.46049 | 91 ft | 1 kts | 151° |
| 2026-05-05 09:03 | 51.46886 | -0.46052 | 91 ft | 0 kts | 147° |
| 2026-05-05 09:07 | 51.46881 | -0.46047 | 91 ft | 2 kts | 147° |
| 2026-05-05 09:07 | 51.46854 | -0.46018 | 91 ft | 6 kts | 144° |
| 2026-05-05 09:07 | 51.46800 | -0.45984 | 91 ft | 10 kts | 180° |
| 2026-05-05 09:08 | 51.46747 | -0.46066 | 91 ft | 13 kts | 268° |
| 2026-05-05 09:08 | 51.46747 | -0.46238 | 91 ft | 16 kts | 270° |
| 2026-05-05 09:08 | 51.46748 | -0.46437 | 91 ft | 18 kts | 271° |
| 2026-05-05 09:08 | 51.46748 | -0.46649 | 91 ft | 19 kts | 271° |
| 2026-05-05 09:09 | 51.46747 | -0.46860 | 91 ft | 19 kts | 269° |
| 2026-05-05 09:09 | 51.46746 | -0.47073 | 91 ft | 19 kts | 270° |
| 2026-05-05 09:09 | 51.46746 | -0.47285 | 91 ft | 19 kts | 270° |
| 2026-05-05 09:09 | 51.46744 | -0.47498 | 91 ft | 19 kts | 270° |
| 2026-05-05 09:10 | 51.46744 | -0.47711 | 91 ft | 19 kts | 270° |
| 2026-05-05 09:10 | 51.46743 | -0.47922 | 91 ft | 19 kts | 270° |
| 2026-05-05 09:10 | 51.46742 | -0.48123 | 91 ft | 15 kts | 270° |
| 2026-05-05 09:10 | 51.46679 | -0.48216 | 91 ft | 15 kts | 179° |
| 2026-05-05 09:11 | 51.46572 | -0.48213 | 91 ft | 15 kts | 181° |
| 2026-05-05 09:11 | 51.46481 | -0.48164 | 91 ft | 11 kts | 112° |
| 2026-05-05 09:11 | 51.46479 | -0.48062 | 91 ft | 0 kts | 90° |
| 2026-05-05 09:12 | 51.46481 | -0.47774 | 91 ft | 64 kts | 91° |
| 2026-05-05 09:12 | 51.46482 | -0.46663 | 92 ft | 133 kts | 90° |
| 2026-05-05 09:12 | 51.46491 | -0.44919 | 284 ft | 169 kts | 88° |
| 2026-05-05 09:13 | 51.46508 | -0.42969 | 862 ft | 181 kts | 86° |
| 2026-05-05 09:13 | 51.46696 | -0.40998 | 1562 ft | 185 kts | 62° |
| 2026-05-05 09:13 | 51.47469 | -0.39395 | 2293 ft | 189 kts | 47° |
| 2026-05-05 09:13 | 51.48399 | -0.37756 | 2823 ft | 211 kts | 46° |
| 2026-05-05 09:14 | 51.49430 | -0.35933 | 3447 ft | 230 kts | 47° |
| 2026-05-05 09:14 | 51.50504 | -0.33969 | 4119 ft | 246 kts | 48° |
| 2026-05-05 09:14 | 51.51644 | -0.31833 | 4943 ft | 256 kts | 49° |
| 2026-05-05 09:14 | 51.52585 | -0.29429 | 5850 ft | 263 kts | 66° |
| 2026-05-05 09:15 | 51.53180 | -0.26641 | 6798 ft | 268 kts | 72° |
| 2026-05-05 09:15 | 51.53712 | -0.23806 | 7706 ft | 273 kts | 72° |
| 2026-05-05 09:15 | 51.54292 | -0.20895 | 8597 ft | 277 kts | 68° |
| 2026-05-05 09:15 | 51.55319 | -0.18338 | 9409 ft | 281 kts | 42° |
| 2026-05-05 09:16 | 51.56956 | -0.16672 | 10257 ft | 283 kts | 19° |
| 2026-05-05 09:16 | 51.58920 | -0.16164 | 10849 ft | 296 kts | 356° |
| 2026-05-05 09:16 | 51.60993 | -0.16747 | 11466 ft | 308 kts | 350° |
| 2026-05-05 09:16 | 51.63126 | -0.16732 | 12219 ft | 314 kts | 13° |
| 2026-05-05 09:17 | 51.65205 | -0.15677 | 13063 ft | 317 kts | 19° |
| 2026-05-05 09:17 | 51.67282 | -0.14478 | 13851 ft | 321 kts | 18° |
| 2026-05-05 09:17 | 51.69403 | -0.13347 | 14605 ft | 326 kts | 17° |
| 2026-05-05 09:17 | 51.71571 | -0.12263 | 15332 ft | 331 kts | 18° |
| 2026-05-05 09:18 | 51.73577 | -0.10529 | 15978 ft | 338 kts | 41° |
| 2026-05-05 09:18 | 51.75022 | -0.07545 | 16663 ft | 343 kts | 65° |
| 2026-05-05 09:18 | 51.75657 | -0.03858 | 17369 ft | 346 kts | 83° |
| 2026-05-05 09:18 | 51.75948 | 0.00011 | 18090 ft | 350 kts | 84° |
| 2026-05-05 09:19 | 51.76235 | 0.03907 | 18776 ft | 354 kts | 84° |
| 2026-05-05 09:19 | 51.76540 | 0.07858 | 19452 ft | 358 kts | 84° |
| 2026-05-05 09:19 | 51.76858 | 0.11853 | 20117 ft | 361 kts | 84° |
| 2026-05-05 09:19 | 51.77182 | 0.15845 | 20753 ft | 365 kts | 84° |
| 2026-05-05 09:20 | 51.77512 | 0.19907 | 21394 ft | 369 kts | 84° |
| 2026-05-05 09:20 | 51.77884 | 0.24001 | 22027 ft | 373 kts | 81° |
| 2026-05-05 09:20 | 51.78419 | 0.28093 | 22629 ft | 377 kts | 77° |
| 2026-05-05 09:20 | 51.79068 | 0.32220 | 23213 ft | 381 kts | 77° |
| 2026-05-05 09:21 | 51.79733 | 0.36356 | 23783 ft | 385 kts | 77° |
| 2026-05-05 09:21 | 51.80407 | 0.40554 | 24371 ft | 388 kts | 77° |
| 2026-05-05 09:21 | 51.81082 | 0.44779 | 24932 ft | 392 kts | 77° |
| 2026-05-05 09:21 | 51.81761 | 0.49045 | 25484 ft | 395 kts | 77° |
| 2026-05-05 09:22 | 51.82441 | 0.53339 | 26011 ft | 399 kts | 77° |
| 2026-05-05 09:22 | 51.83125 | 0.57676 | 26490 ft | 403 kts | 77° |
| 2026-05-05 09:22 | 51.83815 | 0.62062 | 26991 ft | 406 kts | 77° |
| 2026-05-05 09:22 | 51.84508 | 0.66476 | 27481 ft | 409 kts | 78° |
| 2026-05-05 09:23 | 51.85209 | 0.70960 | 27957 ft | 412 kts | 78° |
| 2026-05-05 09:23 | 51.85913 | 0.75472 | 28433 ft | 415 kts | 78° |
| 2026-05-05 09:23 | 51.86612 | 0.79968 | 28880 ft | 418 kts | 78° |
| 2026-05-05 09:23 | 51.87320 | 0.84537 | 29295 ft | 421 kts | 78° |
| 2026-05-05 09:24 | 51.88036 | 0.89172 | 29702 ft | 425 kts | 78° |
| 2026-05-05 09:24 | 51.88749 | 0.93791 | 30102 ft | 428 kts | 77° |
| 2026-05-05 09:24 | 51.89463 | 0.98432 | 30533 ft | 430 kts | 78° |
| 2026-05-05 09:24 | 51.90188 | 1.03163 | 30954 ft | 432 kts | 77° |
| 2026-05-05 09:25 | 51.90907 | 1.07872 | 31304 ft | 435 kts | 77° |
| 2026-05-05 09:25 | 51.91629 | 1.12606 | 31629 ft | 438 kts | 77° |
| 2026-05-05 09:25 | 51.92359 | 1.17410 | 31971 ft | 439 kts | 77° |
| 2026-05-05 09:25 | 51.93079 | 1.22152 | 32389 ft | 439 kts | 78° |
| 2026-05-05 09:26 | 51.93799 | 1.26914 | 32853 ft | 437 kts | 78° |
| 2026-05-05 09:26 | 51.94515 | 1.31664 | 33308 ft | 434 kts | 78° |
| 2026-05-05 09:26 | 51.95227 | 1.36405 | 33719 ft | 433 kts | 78° |
| 2026-05-05 09:26 | 51.95937 | 1.41137 | 34110 ft | 432 kts | 78° |
| 2026-05-05 09:27 | 51.96637 | 1.45833 | 34477 ft | 431 kts | 78° |
| 2026-05-05 09:27 | 51.97333 | 1.50520 | 34811 ft | 430 kts | 78° |
| 2026-05-05 09:27 | 51.98025 | 1.55182 | 35099 ft | 429 kts | 78° |
| 2026-05-05 09:27 | 51.98714 | 1.59854 | 35355 ft | 429 kts | 78° |
| 2026-05-05 09:28 | 51.99411 | 1.64593 | 35554 ft | 430 kts | 78° |
| 2026-05-05 09:28 | 52.00102 | 1.69298 | 35744 ft | 432 kts | 79° |
| 2026-05-05 09:28 | 52.00796 | 1.74024 | 35922 ft | 433 kts | 79° |
| 2026-05-05 09:28 | 52.01489 | 1.78783 | 36106 ft | 434 kts | 78° |
| 2026-05-05 09:29 | 52.02183 | 1.83547 | 36288 ft | 435 kts | 79° |
| 2026-05-05 09:29 | 52.02872 | 1.88291 | 36461 ft | 436 kts | 78° |
| 2026-05-05 09:29 | 52.03565 | 1.93080 | 36639 ft | 437 kts | 78° |
| 2026-05-05 09:29 | 52.04255 | 1.97864 | 36800 ft | 438 kts | 78° |
| 2026-05-05 09:30 | 52.04953 | 2.02708 | 36929 ft | 439 kts | 78° |
| 2026-05-05 09:30 | 52.06335 | 2.12348 | 36945 ft | 441 kts | 78° |
| 2026-05-05 09:31 | 52.07705 | 2.21980 | 36956 ft | 441 kts | 78° |
| 2026-05-05 09:31 | 52.09078 | 2.31705 | 36954 ft | 442 kts | 78° |
| 2026-05-05 09:31 | 52.09762 | 2.36578 | 36624 ft | 442 kts | 78° |
| 2026-05-05 09:32 | 52.10439 | 2.41417 | 36813 ft | 443 kts | 79° |
| 2026-05-05 09:32 | 52.11925 | 2.51190 | 36911 ft | 447 kts | 75° |
| 2026-05-05 09:33 | 52.13745 | 2.60787 | 36943 ft | 448 kts | 73° |
| 2026-05-05 09:33 | 52.15597 | 2.70463 | 36952 ft | 449 kts | 74° |
| 2026-05-05 09:34 | 52.17439 | 2.80186 | 36946 ft | 449 kts | 75° |
| 2026-05-05 09:34 | 52.19253 | 2.89839 | 36949 ft | 449 kts | 75° |
| 2026-05-05 09:35 | 52.21066 | 2.99538 | 36948 ft | 451 kts | 75° |
| 2026-05-05 09:35 | 52.23710 | 3.14250 | 36941 ft | 452 kts | 79° |
| 2026-05-05 09:36 | 52.24641 | 3.24309 | 36945 ft | 450 kts | 88° |
| 2026-05-05 09:36 | 52.24567 | 3.34426 | 36952 ft | 447 kts | 97° |
| 2026-05-05 09:37 | 52.23690 | 3.44386 | 36952 ft | 446 kts | 101° |
| 2026-05-05 09:37 | 52.22700 | 3.54301 | 36956 ft | 446 kts | 102° |
| 2026-05-05 09:38 | 52.21710 | 3.64266 | 36950 ft | 446 kts | 101° |
| 2026-05-05 09:38 | 52.20712 | 3.74313 | 36946 ft | 447 kts | 102° |
| 2026-05-05 09:39 | 52.19721 | 3.84248 | 36946 ft | 448 kts | 102° |
| 2026-05-05 09:39 | 52.18711 | 3.94261 | 36946 ft | 449 kts | 102° |
| 2026-05-05 09:40 | 52.17698 | 4.04229 | 36940 ft | 449 kts | 102° |
| 2026-05-05 09:40 | 52.16675 | 4.14221 | 36943 ft | 449 kts | 102° |
| 2026-05-05 09:41 | 52.15636 | 4.24272 | 36934 ft | 450 kts | 102° |
| 2026-05-05 09:41 | 52.14600 | 4.34230 | 36932 ft | 450 kts | 102° |
| 2026-05-05 09:42 | 52.13541 | 4.44299 | 36926 ft | 450 kts | 102° |
| 2026-05-05 09:42 | 52.12485 | 4.54265 | 36920 ft | 451 kts | 103° |
| 2026-05-05 09:43 | 52.11407 | 4.64340 | 36918 ft | 451 kts | 103° |
| 2026-05-05 09:43 | 52.10323 | 4.74397 | 36919 ft | 452 kts | 103° |
| 2026-05-05 09:44 | 52.09230 | 4.84455 | 36914 ft | 452 kts | 104° |
| 2026-05-05 09:44 | 52.08130 | 4.94473 | 36906 ft | 453 kts | 103° |
| 2026-05-05 09:45 | 52.07022 | 5.04497 | 36909 ft | 452 kts | 104° |
| 2026-05-05 09:45 | 52.05895 | 5.14604 | 36905 ft | 453 kts | 103° |
| 2026-05-05 09:46 | 52.04749 | 5.24773 | 36896 ft | 453 kts | 103° |
| 2026-05-05 09:46 | 52.03625 | 5.34802 | 36902 ft | 453 kts | 103° |
| 2026-05-05 09:47 | 52.02496 | 5.44915 | 36902 ft | 455 kts | 103° |
| 2026-05-05 09:47 | 52.01362 | 5.54976 | 36905 ft | 454 kts | 103° |
| 2026-05-05 09:48 | 52.00221 | 5.65006 | 36907 ft | 454 kts | 104° |
| 2026-05-05 09:48 | 51.99046 | 5.75239 | 36913 ft | 454 kts | 104° |
| 2026-05-05 09:49 | 51.97905 | 5.85106 | 36918 ft | 454 kts | 104° |
| 2026-05-05 09:49 | 51.96742 | 5.95079 | 36916 ft | 454 kts | 104° |
| 2026-05-05 09:50 | 51.95562 | 6.05106 | 36921 ft | 454 kts | 104° |
| 2026-05-05 09:50 | 51.94376 | 6.15126 | 36918 ft | 455 kts | 104° |
| 2026-05-05 09:51 | 51.93172 | 6.25214 | 36910 ft | 455 kts | 104° |
| 2026-05-05 09:51 | 51.91964 | 6.35252 | 36913 ft | 455 kts | 104° |
| 2026-05-05 09:52 | 51.90754 | 6.45247 | 36910 ft | 455 kts | 104° |
| 2026-05-05 09:52 | 51.89533 | 6.55242 | 36908 ft | 455 kts | 104° |
| 2026-05-05 09:53 | 51.88291 | 6.65343 | 36899 ft | 455 kts | 105° |
| 2026-05-05 09:53 | 51.87051 | 6.75352 | 36899 ft | 455 kts | 105° |
| 2026-05-05 09:54 | 51.85796 | 6.85395 | 36904 ft | 456 kts | 105° |
| 2026-05-05 09:54 | 51.84536 | 6.95414 | 36912 ft | 456 kts | 105° |
| 2026-05-05 09:55 | 51.83268 | 7.05422 | 36895 ft | 456 kts | 105° |
| 2026-05-05 09:55 | 51.81990 | 7.15426 | 36888 ft | 457 kts | 105° |
| 2026-05-05 09:56 | 51.80687 | 7.25569 | 36886 ft | 456 kts | 105° |
| 2026-05-05 09:56 | 51.79396 | 7.35546 | 36885 ft | 456 kts | 105° |
| 2026-05-05 09:57 | 51.78083 | 7.45604 | 36882 ft | 456 kts | 105° |
| 2026-05-05 09:57 | 51.76768 | 7.55634 | 36882 ft | 456 kts | 105° |
| 2026-05-05 09:58 | 51.75457 | 7.65537 | 36881 ft | 456 kts | 106° |
| 2026-05-05 09:58 | 51.74121 | 7.75569 | 36880 ft | 456 kts | 106° |
| 2026-05-05 09:59 | 51.72781 | 7.85572 | 36882 ft | 456 kts | 106° |
| 2026-05-05 09:59 | 51.71442 | 7.95482 | 36881 ft | 456 kts | 106° |
| 2026-05-05 10:00 | 51.70092 | 8.05410 | 36877 ft | 456 kts | 106° |
| 2026-05-05 10:00 | 51.68729 | 8.15360 | 36878 ft | 456 kts | 106° |
| 2026-05-05 10:01 | 51.67359 | 8.25307 | 36881 ft | 456 kts | 106° |
| 2026-05-05 10:01 | 51.65983 | 8.35218 | 36886 ft | 455 kts | 106° |
| 2026-05-05 10:02 | 51.64599 | 8.45129 | 36882 ft | 455 kts | 106° |
| 2026-05-05 10:02 | 51.63201 | 8.55080 | 36889 ft | 455 kts | 106° |
| 2026-05-05 10:03 | 51.61800 | 8.64969 | 36891 ft | 454 kts | 106° |
| 2026-05-05 10:03 | 51.60724 | 8.74940 | 36886 ft | 455 kts | 101° |
| 2026-05-05 10:04 | 51.59892 | 8.84971 | 36883 ft | 453 kts | 101° |
| 2026-05-05 10:04 | 51.59057 | 8.94965 | 36877 ft | 451 kts | 101° |
| 2026-05-05 10:05 | 51.58211 | 9.04888 | 36875 ft | 451 kts | 101° |
| 2026-05-05 10:05 | 51.57355 | 9.14809 | 36874 ft | 450 kts | 101° |
| 2026-05-05 10:06 | 51.56482 | 9.24824 | 36868 ft | 450 kts | 101° |
| 2026-05-05 10:06 | 51.55611 | 9.34703 | 36871 ft | 450 kts | 101° |
| 2026-05-05 10:07 | 51.54725 | 9.44639 | 36878 ft | 449 kts | 101° |
| 2026-05-05 10:07 | 51.53838 | 9.54507 | 36870 ft | 449 kts | 101° |
| 2026-05-05 10:08 | 51.52941 | 9.64398 | 36867 ft | 448 kts | 101° |
| 2026-05-05 10:08 | 51.52031 | 9.74308 | 36862 ft | 448 kts | 102° |
| 2026-05-05 10:09 | 51.51120 | 9.84143 | 36861 ft | 448 kts | 102° |
| 2026-05-05 10:09 | 51.50201 | 9.93978 | 36858 ft | 448 kts | 102° |
| 2026-05-05 10:10 | 51.49268 | 10.03873 | 36845 ft | 448 kts | 102° |
| 2026-05-05 10:10 | 51.48333 | 10.13691 | 36856 ft | 448 kts | 102° |
| 2026-05-05 10:11 | 51.47386 | 10.23527 | 36853 ft | 449 kts | 102° |
| 2026-05-05 10:11 | 51.46434 | 10.33355 | 36851 ft | 448 kts | 102° |
| 2026-05-05 10:12 | 51.45463 | 10.43261 | 36856 ft | 449 kts | 102° |
| 2026-05-05 10:12 | 51.44354 | 10.52970 | 36855 ft | 447 kts | 107° |
| 2026-05-05 10:13 | 51.42843 | 10.62596 | 36848 ft | 446 kts | 108° |
| 2026-05-05 10:13 | 51.41299 | 10.72243 | 36860 ft | 446 kts | 109° |
| 2026-05-05 10:14 | 51.39765 | 10.81818 | 36857 ft | 446 kts | 108° |
| 2026-05-05 10:14 | 51.38227 | 10.91374 | 36846 ft | 446 kts | 109° |
| 2026-05-05 10:15 | 51.36675 | 11.00968 | 36855 ft | 447 kts | 108° |
| 2026-05-05 10:15 | 51.35113 | 11.10561 | 36852 ft | 447 kts | 108° |
| 2026-05-05 10:16 | 51.33552 | 11.20115 | 36853 ft | 446 kts | 108° |
| 2026-05-05 10:16 | 51.31980 | 11.29681 | 36856 ft | 446 kts | 108° |
| 2026-05-05 10:17 | 51.30406 | 11.39203 | 36850 ft | 446 kts | 108° |
| 2026-05-05 10:17 | 51.28810 | 11.48787 | 36855 ft | 445 kts | 108° |
| 2026-05-05 10:18 | 51.27223 | 11.58285 | 36847 ft | 445 kts | 108° |
| 2026-05-05 10:18 | 51.25622 | 11.67804 | 36843 ft | 445 kts | 109° |
| 2026-05-05 10:19 | 51.24005 | 11.77370 | 36847 ft | 444 kts | 109° |
| 2026-05-05 10:19 | 51.22396 | 11.86837 | 36846 ft | 445 kts | 109° |
| 2026-05-05 10:20 | 51.20776 | 11.96313 | 36844 ft | 445 kts | 109° |
| 2026-05-05 10:20 | 51.19157 | 12.05735 | 36846 ft | 444 kts | 109° |
| 2026-05-05 10:21 | 51.17516 | 12.15226 | 36849 ft | 445 kts | 109° |
| 2026-05-05 10:21 | 51.15876 | 12.24665 | 36847 ft | 443 kts | 109° |
| 2026-05-05 10:22 | 51.14230 | 12.34084 | 36840 ft | 444 kts | 109° |
| 2026-05-05 10:22 | 51.12572 | 12.43538 | 36843 ft | 443 kts | 109° |
| 2026-05-05 10:23 | 51.10920 | 12.52894 | 36842 ft | 443 kts | 109° |
| 2026-05-05 10:23 | 51.09244 | 12.62355 | 36841 ft | 444 kts | 109° |
| 2026-05-05 10:24 | 51.07568 | 12.71750 | 36843 ft | 443 kts | 110° |
| 2026-05-05 10:24 | 51.05890 | 12.81105 | 36838 ft | 443 kts | 109° |
| 2026-05-05 10:25 | 51.04188 | 12.90547 | 36839 ft | 443 kts | 109° |
| 2026-05-05 10:25 | 51.02500 | 12.99863 | 36828 ft | 443 kts | 109° |
| 2026-05-05 10:26 | 51.00790 | 13.09258 | 36839 ft | 442 kts | 109° |
| 2026-05-05 10:26 | 50.99085 | 13.18570 | 36842 ft | 442 kts | 109° |
| 2026-05-05 10:27 | 50.97372 | 13.27877 | 36846 ft | 442 kts | 109° |
| 2026-05-05 10:27 | 50.95646 | 13.37213 | 36844 ft | 442 kts | 109° |
| 2026-05-05 10:28 | 50.93910 | 13.46557 | 36846 ft | 442 kts | 109° |
| 2026-05-05 10:28 | 50.92176 | 13.55841 | 36848 ft | 442 kts | 109° |
| 2026-05-05 10:29 | 50.90424 | 13.65172 | 36852 ft | 443 kts | 110° |
| 2026-05-05 10:29 | 50.88666 | 13.74496 | 36851 ft | 443 kts | 110° |
| 2026-05-05 10:30 | 50.86889 | 13.83859 | 36850 ft | 444 kts | 110° |
| 2026-05-05 10:30 | 50.85086 | 13.93114 | 36853 ft | 443 kts | 112° |
| 2026-05-05 10:31 | 50.82706 | 14.02084 | 36855 ft | 443 kts | 120° |
| 2026-05-05 10:31 | 50.79624 | 14.10488 | 36845 ft | 445 kts | 126° |
| 2026-05-05 10:32 | 50.76299 | 14.18666 | 36834 ft | 446 kts | 126° |
| 2026-05-05 10:32 | 50.72959 | 14.26880 | 36825 ft | 446 kts | 126° |
| 2026-05-05 10:33 | 50.69625 | 14.35076 | 36821 ft | 446 kts | 126° |
| 2026-05-05 10:33 | 50.66291 | 14.43250 | 36823 ft | 446 kts | 126° |
| 2026-05-05 10:34 | 50.62944 | 14.51433 | 36823 ft | 446 kts | 126° |
| 2026-05-05 10:34 | 50.59577 | 14.59641 | 36825 ft | 445 kts | 125° |
| 2026-05-05 10:35 | 50.56243 | 14.67744 | 36821 ft | 445 kts | 126° |
| 2026-05-05 10:35 | 50.52874 | 14.75907 | 36817 ft | 445 kts | 126° |
| 2026-05-05 10:36 | 50.49520 | 14.84004 | 36819 ft | 445 kts | 126° |
| 2026-05-05 10:36 | 50.46139 | 14.92147 | 36820 ft | 445 kts | 126° |
| 2026-05-05 10:37 | 50.42775 | 15.00224 | 36824 ft | 445 kts | 126° |
| 2026-05-05 10:37 | 50.39405 | 15.08286 | 36822 ft | 444 kts | 126° |
| 2026-05-05 10:38 | 50.36030 | 15.16341 | 36820 ft | 444 kts | 126° |
| 2026-05-05 10:38 | 50.32639 | 15.24406 | 36820 ft | 444 kts | 126° |
| 2026-05-05 10:39 | 50.29260 | 15.32416 | 36820 ft | 443 kts | 126° |
| 2026-05-05 10:39 | 50.25853 | 15.40468 | 36817 ft | 443 kts | 126° |
| 2026-05-05 10:40 | 50.22449 | 15.48485 | 36815 ft | 443 kts | 126° |
| 2026-05-05 10:40 | 50.19068 | 15.56430 | 36823 ft | 443 kts | 126° |
| 2026-05-05 10:41 | 50.15670 | 15.64391 | 36817 ft | 443 kts | 126° |
| 2026-05-05 10:41 | 50.12239 | 15.72403 | 36825 ft | 443 kts | 127° |
| 2026-05-05 10:42 | 50.07107 | 15.84338 | 36825 ft | 443 kts | 127° |
| 2026-05-05 10:43 | 50.04045 | 15.92582 | 36825 ft | 444 kts | 117° |
| 2026-05-05 10:43 | 50.02018 | 16.01584 | 36823 ft | 443 kts | 105° |
| 2026-05-05 10:44 | 50.01129 | 16.10969 | 36816 ft | 440 kts | 95° |
| 2026-05-05 10:44 | 50.00825 | 16.20468 | 36819 ft | 439 kts | 94° |
| 2026-05-05 10:45 | 50.00531 | 16.29846 | 36823 ft | 438 kts | 94° |
| 2026-05-05 10:45 | 50.00210 | 16.39282 | 36842 ft | 438 kts | 94° |
| 2026-05-05 10:46 | 49.99874 | 16.48659 | 36842 ft | 437 kts | 94° |
| 2026-05-05 10:46 | 49.99529 | 16.58065 | 36842 ft | 436 kts | 94° |
| 2026-05-05 10:47 | 49.99171 | 16.67513 | 36850 ft | 437 kts | 95° |
| 2026-05-05 10:47 | 49.98810 | 16.76893 | 36851 ft | 438 kts | 95° |
| 2026-05-05 10:48 | 49.98440 | 16.86332 | 36858 ft | 438 kts | 95° |
| 2026-05-05 10:48 | 49.98063 | 16.95727 | 36842 ft | 436 kts | 95° |
| 2026-05-05 10:48 | 49.97874 | 17.00396 | 36604 ft | 432 kts | 95° |
| 2026-05-05 10:49 | 49.97681 | 17.05047 | 36075 ft | 434 kts | 95° |
| 2026-05-05 10:49 | 49.97487 | 17.09681 | 35400 ft | 438 kts | 95° |
| 2026-05-05 10:49 | 49.97287 | 17.14429 | 34715 ft | 441 kts | 95° |
| 2026-05-05 10:49 | 49.97087 | 17.19134 | 33949 ft | 443 kts | 95° |
| 2026-05-05 10:50 | 49.96884 | 17.23873 | 33262 ft | 443 kts | 95° |
| 2026-05-05 10:50 | 49.96678 | 17.28642 | 32917 ft | 445 kts | 95° |
| 2026-05-05 10:50 | 49.96471 | 17.33413 | 32882 ft | 447 kts | 95° |
| 2026-05-05 10:51 | 49.96046 | 17.43034 | 32876 ft | 448 kts | 95° |
| 2026-05-05 10:51 | 49.95611 | 17.52664 | 32866 ft | 448 kts | 95° |
| 2026-05-05 10:52 | 49.95172 | 17.62242 | 32861 ft | 448 kts | 95° |
| 2026-05-05 10:52 | 49.94738 | 17.71536 | 32861 ft | 447 kts | 96° |
| 2026-05-05 10:53 | 49.94279 | 17.81185 | 32860 ft | 447 kts | 96° |
| 2026-05-05 10:53 | 49.93824 | 17.90601 | 32459 ft | 430 kts | 96° |
| 2026-05-05 10:53 | 49.93600 | 17.95156 | 31434 ft | 429 kts | 96° |
| 2026-05-05 10:54 | 49.93370 | 17.99763 | 30102 ft | 432 kts | 96° |
| 2026-05-05 10:54 | 49.93173 | 18.04336 | 29107 ft | 425 kts | 93° |
| 2026-05-05 10:54 | 49.93139 | 18.08878 | 28191 ft | 418 kts | 90° |
| 2026-05-05 10:54 | 49.93193 | 18.13299 | 27630 ft | 411 kts | 90° |
| 2026-05-05 10:55 | 49.93256 | 18.17757 | 27347 ft | 412 kts | 90° |
| 2026-05-05 10:55 | 49.93315 | 18.22196 | 27044 ft | 410 kts | 90° |
| 2026-05-05 10:55 | 49.93370 | 18.26594 | 26653 ft | 408 kts | 90° |
| 2026-05-05 10:55 | 49.93324 | 18.30965 | 26232 ft | 405 kts | 93° |
| 2026-05-05 10:56 | 49.93203 | 18.35283 | 25796 ft | 402 kts | 93° |
| 2026-05-05 10:56 | 49.93071 | 18.39590 | 25382 ft | 399 kts | 93° |
| 2026-05-05 10:56 | 49.93089 | 18.43822 | 24979 ft | 397 kts | 86° |
| 2026-05-05 10:56 | 49.93378 | 18.48057 | 24576 ft | 395 kts | 83° |
| 2026-05-05 10:57 | 49.93718 | 18.52269 | 24146 ft | 392 kts | 83° |
| 2026-05-05 10:57 | 49.94047 | 18.56467 | 23702 ft | 389 kts | 83° |
| 2026-05-05 10:57 | 49.94352 | 18.60579 | 23270 ft | 386 kts | 84° |
| 2026-05-05 10:57 | 49.94645 | 18.64720 | 22844 ft | 384 kts | 84° |
| 2026-05-05 10:58 | 49.94925 | 18.68821 | 22401 ft | 381 kts | 85° |
| 2026-05-05 10:58 | 49.95198 | 18.72920 | 21969 ft | 378 kts | 85° |
| 2026-05-05 10:58 | 49.95460 | 18.76916 | 21541 ft | 375 kts | 85° |
| 2026-05-05 10:58 | 49.95721 | 18.80956 | 21107 ft | 373 kts | 85° |
| 2026-05-05 10:59 | 49.95977 | 18.84933 | 20669 ft | 370 kts | 86° |
| 2026-05-05 10:59 | 49.96231 | 18.88906 | 20230 ft | 368 kts | 86° |
| 2026-05-05 10:59 | 49.96480 | 18.92837 | 19780 ft | 367 kts | 86° |
| 2026-05-05 10:59 | 49.96724 | 18.96709 | 19330 ft | 365 kts | 86° |
| 2026-05-05 11:00 | 49.96968 | 19.00616 | 18877 ft | 363 kts | 86° |
| 2026-05-05 11:00 | 49.97210 | 19.04500 | 18427 ft | 362 kts | 87° |
| 2026-05-05 11:00 | 49.97448 | 19.08356 | 17997 ft | 360 kts | 87° |
| 2026-05-05 11:00 | 49.97684 | 19.12190 | 17561 ft | 357 kts | 87° |
| 2026-05-05 11:01 | 49.97916 | 19.16010 | 17141 ft | 355 kts | 87° |
| 2026-05-05 11:01 | 49.98148 | 19.19808 | 16721 ft | 353 kts | 87° |
| 2026-05-05 11:01 | 49.98377 | 19.23604 | 16306 ft | 351 kts | 87° |
| 2026-05-05 11:01 | 49.98602 | 19.27339 | 15899 ft | 348 kts | 87° |
| 2026-05-05 11:02 | 49.98824 | 19.31066 | 15488 ft | 346 kts | 87° |
| 2026-05-05 11:02 | 49.99042 | 19.34718 | 15089 ft | 344 kts | 87° |
| 2026-05-05 11:02 | 49.99260 | 19.38415 | 14674 ft | 342 kts | 87° |
| 2026-05-05 11:02 | 49.99475 | 19.42085 | 14264 ft | 340 kts | 87° |
| 2026-05-05 11:03 | 49.99687 | 19.45690 | 13862 ft | 338 kts | 87° |
| 2026-05-05 11:03 | 49.99899 | 19.49315 | 13458 ft | 336 kts | 87° |
| 2026-05-05 11:03 | 50.00108 | 19.52926 | 13051 ft | 335 kts | 87° |
| 2026-05-05 11:03 | 50.00315 | 19.56515 | 12645 ft | 333 kts | 87° |
| 2026-05-05 11:04 | 50.00519 | 19.60084 | 12235 ft | 332 kts | 87° |
| 2026-05-05 11:04 | 50.00721 | 19.63636 | 11834 ft | 330 kts | 87° |
| 2026-05-05 11:04 | 50.00920 | 19.67152 | 11446 ft | 329 kts | 88° |
| 2026-05-05 11:04 | 50.01120 | 19.70681 | 11040 ft | 327 kts | 88° |
| 2026-05-05 11:05 | 50.01317 | 19.74199 | 10645 ft | 325 kts | 88° |
| 2026-05-05 11:05 | 50.01511 | 19.77683 | 10255 ft | 324 kts | 88° |
| 2026-05-05 11:05 | 50.01704 | 19.81150 | 9995 ft | 316 kts | 88° |
| 2026-05-05 11:05 | 50.01888 | 19.84451 | 9882 ft | 304 kts | 88° |
| 2026-05-05 11:06 | 50.02066 | 19.87695 | 9564 ft | 301 kts | 88° |
| 2026-05-05 11:06 | 50.02242 | 19.90937 | 9210 ft | 300 kts | 88° |
| 2026-05-05 11:06 | 50.02414 | 19.94109 | 8867 ft | 297 kts | 88° |
| 2026-05-05 11:06 | 50.02587 | 19.97318 | 8523 ft | 295 kts | 88° |
| 2026-05-05 11:07 | 50.02756 | 20.00465 | 8187 ft | 293 kts | 88° |
| 2026-05-05 11:07 | 50.02925 | 20.03626 | 7872 ft | 289 kts | 88° |
| 2026-05-05 11:07 | 50.03086 | 20.06613 | 7768 ft | 269 kts | 88° |
| 2026-05-05 11:07 | 50.03237 | 20.09411 | 7685 ft | 256 kts | 89° |
| 2026-05-05 11:08 | 50.03419 | 20.12133 | 7596 ft | 250 kts | 84° |
| 2026-05-05 11:08 | 50.03740 | 20.14808 | 7335 ft | 251 kts | 81° |
| 2026-05-05 11:08 | 50.04098 | 20.17448 | 7050 ft | 251 kts | 81° |
| 2026-05-05 11:08 | 50.04465 | 20.20101 | 6765 ft | 250 kts | 79° |
| 2026-05-05 11:09 | 50.05183 | 20.22542 | 6435 ft | 255 kts | 47° |
| 2026-05-05 11:09 | 50.06665 | 20.23907 | 6138 ft | 253 kts | 10° |
| 2026-05-05 11:09 | 50.08409 | 20.23796 | 5855 ft | 248 kts | 344° |
| 2026-05-05 11:09 | 50.10072 | 20.23150 | 5582 ft | 248 kts | 343° |
| 2026-05-05 11:10 | 50.11718 | 20.22413 | 5283 ft | 246 kts | 331° |
| 2026-05-05 11:10 | 50.12944 | 20.20679 | 4977 ft | 236 kts | 293° |
| 2026-05-05 11:10 | 50.13308 | 20.18310 | 4696 ft | 226 kts | 262° |
| 2026-05-05 11:10 | 50.13010 | 20.15955 | 4442 ft | 221 kts | 253° |
| 2026-05-05 11:11 | 50.12648 | 20.13619 | 4178 ft | 221 kts | 253° |
| 2026-05-05 11:11 | 50.12307 | 20.11299 | 4007 ft | 215 kts | 254° |
| 2026-05-05 11:11 | 50.12009 | 20.09061 | 3999 ft | 213 kts | 256° |
| 2026-05-05 11:11 | 50.11721 | 20.06789 | 3848 ft | 213 kts | 255° |
| 2026-05-05 11:12 | 50.11424 | 20.04558 | 3706 ft | 211 kts | 255° |
| 2026-05-05 11:12 | 50.11116 | 20.02340 | 3516 ft | 207 kts | 254° |
| 2026-05-05 11:12 | 50.10809 | 20.00180 | 3254 ft | 206 kts | 254° |
| 2026-05-05 11:12 | 50.10499 | 19.97998 | 2988 ft | 204 kts | 254° |
| 2026-05-05 11:13 | 50.10198 | 19.95863 | 2730 ft | 203 kts | 254° |
| 2026-05-05 11:13 | 50.09901 | 19.93750 | 2524 ft | 189 kts | 254° |
| 2026-05-05 11:13 | 50.09639 | 19.91864 | 2274 ft | 172 kts | 253° |
| 2026-05-05 11:13 | 50.09398 | 19.90141 | 2033 ft | 158 kts | 253° |
| 2026-05-05 11:14 | 50.09172 | 19.88542 | 1837 ft | 146 kts | 254° |
| 2026-05-05 11:14 | 50.08955 | 19.87000 | 1681 ft | 145 kts | 255° |
| 2026-05-05 11:14 | 50.08749 | 19.85510 | 1484 ft | 137 kts | 253° |
| 2026-05-05 11:14 | 50.08551 | 19.84095 | 1327 ft | 135 kts | 255° |
| 2026-05-05 11:15 | 50.08350 | 19.82663 | 1152 ft | 135 kts | 256° |
| 2026-05-05 11:15 | 50.08151 | 19.81234 | 993 ft | 134 kts | 256° |
| 2026-05-05 11:15 | 50.07956 | 19.79813 | 825 ft | 132 kts | 256° |
| 2026-05-05 11:15 | 50.07787 | 19.78602 | 794 ft | 79 kts | 256° |
| 2026-05-05 11:16 | 50.07721 | 19.78159 | 794 ft | 18 kts | 253° |
| 2026-05-05 11:16 | 50.07619 | 19.78091 | 794 ft | 14 kts | 182° |
| 2026-05-05 11:16 | 50.07538 | 19.78087 | 795 ft | 10 kts | 183° |
| 2026-05-05 11:16 | 50.07473 | 19.78113 | 797 ft | 10 kts | 126° |
| 2026-05-05 11:17 | 50.07480 | 19.78222 | 797 ft | 11 kts | 77° |
| 2026-05-05 11:17 | 50.07487 | 19.78276 | 797 ft | 0 kts | 78° |
| 2026-05-05 11:18 | 50.07489 | 19.78286 | 797 ft | 2 kts | 78° |
| 2026-05-05 11:18 | 50.07496 | 19.78335 | 797 ft | 7 kts | 78° |
| 2026-05-05 11:18 | 50.07512 | 19.78457 | 796 ft | 14 kts | 78° |
| 2026-05-05 11:18 | 50.07536 | 19.78626 | 796 ft | 16 kts | 79° |
| 2026-05-05 11:19 | 50.07560 | 19.78798 | 797 ft | 16 kts | 77° |
| 2026-05-05 11:19 | 50.07585 | 19.78974 | 797 ft | 16 kts | 78° |
| 2026-05-05 11:19 | 50.07610 | 19.79154 | 797 ft | 17 kts | 78° |
| 2026-05-05 11:19 | 50.07635 | 19.79339 | 797 ft | 17 kts | 79° |
| 2026-05-05 11:20 | 50.07662 | 19.79527 | 797 ft | 17 kts | 78° |
| 2026-05-05 11:20 | 50.07688 | 19.79717 | 796 ft | 18 kts | 78° |
| 2026-05-05 11:20 | 50.07713 | 19.79898 | 797 ft | 14 kts | 82° |
| 2026-05-05 11:20 | 50.07644 | 19.79956 | 797 ft | 14 kts | 205° |
| 2026-05-05 11:21 | 50.07548 | 19.79915 | 797 ft | 14 kts | 171° |
| 2026-05-05 11:21 | 50.07449 | 19.79951 | 796 ft | 14 kts | 168° |
| 2026-05-05 11:21 | 50.07399 | 19.80047 | 796 ft | 13 kts | 81° |
| 2026-05-05 11:21 | 50.07412 | 19.80137 | 796 ft | 5 kts | 78° |
| 2026-05-05 11:22 | 50.07416 | 19.80203 | 796 ft | 6 kts | 109° |
| 2026-05-05 11:22 | 50.07375 | 19.80234 | 796 ft | 5 kts | 168° |
| 2026-05-05 11:22 | 50.07354 | 19.80241 | 796 ft | 2 kts | 168° |
| 2026-05-05 11:22 | 50.07352 | 19.80242 | 796 ft | 0 kts | 167° |